sensor_id;sensor_type;location;lat;lon;timestamp;P1;durP1;ratioP1;P2;durP2;ratioP2
80700;SDS011;71609;42.630;23.380;2024-03-02T00:02:01;10.95;;;6.05;;
80700;SDS011;71609;42.630;23.380;2024-03-02T00:04:28;11.95;;;7.13;;
80700;SDS011;71609;42.630;23.380;2024-03-02T00:06:54;10.32;;;6.20;;
80700;SDS011;71609;42.630;23.380;2024-03-02T00:09:20;10.65;;;6.25;;
80700;SDS011;71609;42.630;23.380;2024-03-02T00:11:46;11.15;;;6.30;;
80700;SDS011;71609;42.630;23.380;2024-03-02T00:14:12;12.40;;;6.05;;
80700;SDS011;71609;42.630;23.380;2024-03-02T00:16:37;12.20;;;6.18;;
80700;SDS011;71609;42.630;23.380;2024-03-02T00:19:03;10.90;;;5.95;;
80700;SDS011;71609;42.630;23.380;2024-03-02T00:21:31;9.85;;;5.82;;
80700;SDS011;71609;42.630;23.380;2024-03-02T00:23:57;10.13;;;5.78;;
80700;SDS011;71609;42.630;23.380;2024-03-02T00:26:23;11.50;;;6.55;;
80700;SDS011;71609;42.630;23.380;2024-03-02T00:28:49;10.15;;;5.93;;
80700;SDS011;71609;42.630;23.380;2024-03-02T00:31:22;11.63;;;6.38;;
80700;SDS011;71609;42.630;23.380;2024-03-02T00:33:48;11.85;;;6.50;;
80700;SDS011;71609;42.630;23.380;2024-03-02T00:36:15;16.05;;;6.57;;
80700;SDS011;71609;42.630;23.380;2024-03-02T00:38:51;12.05;;;6.50;;
80700;SDS011;71609;42.630;23.380;2024-03-02T00:41:22;10.77;;;6.20;;
80700;SDS011;71609;42.630;23.380;2024-03-02T00:43:56;10.45;;;6.18;;
80700;SDS011;71609;42.630;23.380;2024-03-02T00:46:27;11.07;;;5.65;;
80700;SDS011;71609;42.630;23.380;2024-03-02T00:48:55;11.05;;;6.30;;
80700;SDS011;71609;42.630;23.380;2024-03-02T00:51:23;10.48;;;5.93;;
80700;SDS011;71609;42.630;23.380;2024-03-02T00:53:53;12.65;;;6.30;;
80700;SDS011;71609;42.630;23.380;2024-03-02T00:56:21;13.30;;;6.50;;
80700;SDS011;71609;42.630;23.380;2024-03-02T00:58:49;12.10;;;6.32;;
80700;SDS011;71609;42.630;23.380;2024-03-02T01:01:15;11.95;;;6.38;;
80700;SDS011;71609;42.630;23.380;2024-03-02T01:03:41;11.75;;;6.18;;
80700;SDS011;71609;42.630;23.380;2024-03-02T01:06:08;11.05;;;6.32;;
80700;SDS011;71609;42.630;23.380;2024-03-02T01:08:37;10.95;;;5.97;;
80700;SDS011;71609;42.630;23.380;2024-03-02T01:13:29;10.77;;;5.80;;
80700;SDS011;71609;42.630;23.380;2024-03-02T01:15:56;10.48;;;5.78;;
80700;SDS011;71609;42.630;23.380;2024-03-02T01:18:22;9.88;;;5.80;;
80700;SDS011;71609;42.630;23.380;2024-03-02T01:20:48;11.75;;;6.20;;
80700;SDS011;71609;42.630;23.380;2024-03-02T01:23:20;13.38;;;6.32;;
80700;SDS011;71609;42.630;23.380;2024-03-02T01:28:13;11.73;;;5.88;;
80700;SDS011;71609;42.630;23.380;2024-03-02T01:30:39;10.77;;;5.90;;
80700;SDS011;71609;42.630;23.380;2024-03-02T01:33:05;10.50;;;6.10;;
80700;SDS011;71609;42.630;23.380;2024-03-02T01:35:32;10.32;;;5.72;;
80700;SDS011;71609;42.630;23.380;2024-03-02T01:37:58;10.40;;;6.03;;
80700;SDS011;71609;42.630;23.380;2024-03-02T01:40:23;10.93;;;6.00;;
80700;SDS011;71609;42.630;23.380;2024-03-02T01:42:53;10.80;;;5.88;;
80700;SDS011;71609;42.630;23.380;2024-03-02T01:45:20;11.30;;;6.30;;
80700;SDS011;71609;42.630;23.380;2024-03-02T01:47:47;10.15;;;5.60;;
80700;SDS011;71609;42.630;23.380;2024-03-02T01:50:13;11.00;;;5.70;;
80700;SDS011;71609;42.630;23.380;2024-03-02T01:52:39;11.68;;;6.32;;
80700;SDS011;71609;42.630;23.380;2024-03-02T01:55:05;11.75;;;6.10;;
80700;SDS011;71609;42.630;23.380;2024-03-02T01:57:32;13.23;;;6.13;;
80700;SDS011;71609;42.630;23.380;2024-03-02T01:59:59;12.48;;;6.30;;
80700;SDS011;71609;42.630;23.380;2024-03-02T02:02:27;10.65;;;5.95;;
80700;SDS011;71609;42.630;23.380;2024-03-02T02:04:53;9.43;;;5.82;;
80700;SDS011;71609;42.630;23.380;2024-03-02T02:07:19;10.68;;;6.18;;
80700;SDS011;71609;42.630;23.380;2024-03-02T02:09:45;11.23;;;6.07;;
80700;SDS011;71609;42.630;23.380;2024-03-02T02:12:11;10.68;;;6.05;;
80700;SDS011;71609;42.630;23.380;2024-03-02T02:14:37;10.10;;;5.95;;
80700;SDS011;71609;42.630;23.380;2024-03-02T02:17:04;10.90;;;5.93;;
80700;SDS011;71609;42.630;23.380;2024-03-02T02:19:30;9.73;;;5.75;;
80700;SDS011;71609;42.630;23.380;2024-03-02T02:21:56;10.45;;;6.13;;
80700;SDS011;71609;42.630;23.380;2024-03-02T02:24:22;12.18;;;5.38;;
80700;SDS011;71609;42.630;23.380;2024-03-02T02:26:48;9.90;;;5.75;;
80700;SDS011;71609;42.630;23.380;2024-03-02T02:29:13;12.40;;;5.80;;
80700;SDS011;71609;42.630;23.380;2024-03-02T02:31:40;10.25;;;5.95;;
80700;SDS011;71609;42.630;23.380;2024-03-02T02:34:06;9.15;;;5.40;;
80700;SDS011;71609;42.630;23.380;2024-03-02T02:36:32;9.80;;;5.53;;
80700;SDS011;71609;42.630;23.380;2024-03-02T02:39:02;9.50;;;5.68;;
80700;SDS011;71609;42.630;23.380;2024-03-02T02:41:29;11.25;;;6.28;;
80700;SDS011;71609;42.630;23.380;2024-03-02T02:43:56;12.02;;;6.20;;
80700;SDS011;71609;42.630;23.380;2024-03-02T02:46:21;10.98;;;5.75;;
80700;SDS011;71609;42.630;23.380;2024-03-02T02:48:47;10.80;;;5.63;;
80700;SDS011;71609;42.630;23.380;2024-03-02T02:51:13;12.23;;;6.20;;
80700;SDS011;71609;42.630;23.380;2024-03-02T02:53:39;10.23;;;5.70;;
80700;SDS011;71609;42.630;23.380;2024-03-02T02:56:07;10.02;;;6.00;;
80700;SDS011;71609;42.630;23.380;2024-03-02T02:58:33;12.07;;;6.60;;
80700;SDS011;71609;42.630;23.380;2024-03-02T03:00:59;10.80;;;5.47;;
80700;SDS011;71609;42.630;23.380;2024-03-02T03:03:24;12.55;;;6.43;;
80700;SDS011;71609;42.630;23.380;2024-03-02T03:05:50;10.85;;;6.32;;
80700;SDS011;71609;42.630;23.380;2024-03-02T03:08:16;9.52;;;5.93;;
80700;SDS011;71609;42.630;23.380;2024-03-02T03:10:42;9.90;;;5.53;;
80700;SDS011;71609;42.630;23.380;2024-03-02T03:13:08;10.95;;;5.82;;
80700;SDS011;71609;42.630;23.380;2024-03-02T03:15:36;10.55;;;5.78;;
80700;SDS011;71609;42.630;23.380;2024-03-02T03:18:03;11.45;;;6.20;;
80700;SDS011;71609;42.630;23.380;2024-03-02T03:20:29;9.60;;;5.65;;
80700;SDS011;71609;42.630;23.380;2024-03-02T03:22:56;10.75;;;5.95;;
80700;SDS011;71609;42.630;23.380;2024-03-02T03:25:22;10.77;;;5.97;;
80700;SDS011;71609;42.630;23.380;2024-03-02T03:27:48;9.13;;;5.55;;
80700;SDS011;71609;42.630;23.380;2024-03-02T03:30:14;8.77;;;5.90;;
80700;SDS011;71609;42.630;23.380;2024-03-02T03:32:39;9.20;;;5.60;;
80700;SDS011;71609;42.630;23.380;2024-03-02T03:35:06;10.88;;;5.78;;
80700;SDS011;71609;42.630;23.380;2024-03-02T03:37:32;9.90;;;5.85;;
80700;SDS011;71609;42.630;23.380;2024-03-02T03:40:02;9.77;;;5.35;;
80700;SDS011;71609;42.630;23.380;2024-03-02T03:42:35;10.25;;;5.70;;
80700;SDS011;71609;42.630;23.380;2024-03-02T03:45:01;8.93;;;5.20;;
80700;SDS011;71609;42.630;23.380;2024-03-02T03:47:27;10.07;;;6.22;;
80700;SDS011;71609;42.630;23.380;2024-03-02T03:49:53;9.77;;;5.43;;
80700;SDS011;71609;42.630;23.380;2024-03-02T03:52:19;10.00;;;5.82;;
80700;SDS011;71609;42.630;23.380;2024-03-02T03:54:46;8.77;;;5.13;;
80700;SDS011;71609;42.630;23.380;2024-03-02T03:57:11;10.15;;;5.57;;
80700;SDS011;71609;42.630;23.380;2024-03-02T03:59:37;9.80;;;5.60;;
80700;SDS011;71609;42.630;23.380;2024-03-02T04:02:03;9.63;;;5.75;;
80700;SDS011;71609;42.630;23.380;2024-03-02T04:04:29;10.45;;;5.63;;
80700;SDS011;71609;42.630;23.380;2024-03-02T04:06:55;11.35;;;6.15;;
80700;SDS011;71609;42.630;23.380;2024-03-02T04:09:21;9.90;;;5.75;;
80700;SDS011;71609;42.630;23.380;2024-03-02T04:11:46;12.13;;;5.93;;
80700;SDS011;71609;42.630;23.380;2024-03-02T04:14:12;10.70;;;5.30;;
80700;SDS011;71609;42.630;23.380;2024-03-02T04:16:38;11.23;;;5.97;;
80700;SDS011;71609;42.630;23.380;2024-03-02T04:19:04;10.32;;;6.03;;
80700;SDS011;71609;42.630;23.380;2024-03-02T04:21:30;10.80;;;5.88;;
80700;SDS011;71609;42.630;23.380;2024-03-02T04:23:56;10.45;;;5.45;;
80700;SDS011;71609;42.630;23.380;2024-03-02T04:26:25;11.90;;;5.70;;
80700;SDS011;71609;42.630;23.380;2024-03-02T04:28:52;9.55;;;5.90;;
80700;SDS011;71609;42.630;23.380;2024-03-02T04:31:19;9.18;;;5.57;;
80700;SDS011;71609;42.630;23.380;2024-03-02T04:33:45;10.05;;;5.70;;
80700;SDS011;71609;42.630;23.380;2024-03-02T04:36:10;10.85;;;5.88;;
80700;SDS011;71609;42.630;23.380;2024-03-02T04:38:36;9.55;;;5.43;;
80700;SDS011;71609;42.630;23.380;2024-03-02T04:41:03;10.73;;;6.20;;
80700;SDS011;71609;42.630;23.380;2024-03-02T04:43:31;10.32;;;5.82;;
80700;SDS011;71609;42.630;23.380;2024-03-02T04:46:00;10.35;;;5.70;;
80700;SDS011;71609;42.630;23.380;2024-03-02T04:50:52;9.57;;;5.80;;
80700;SDS011;71609;42.630;23.380;2024-03-02T04:53:18;9.20;;;5.75;;
80700;SDS011;71609;42.630;23.380;2024-03-02T04:55:44;10.77;;;5.45;;
80700;SDS011;71609;42.630;23.380;2024-03-02T04:58:09;10.20;;;5.43;;
80700;SDS011;71609;42.630;23.380;2024-03-02T05:00:35;10.73;;;5.85;;
80700;SDS011;71609;42.630;23.380;2024-03-02T05:03:01;10.23;;;5.68;;
80700;SDS011;71609;42.630;23.380;2024-03-02T05:05:27;9.73;;;5.30;;
80700;SDS011;71609;42.630;23.380;2024-03-02T05:07:53;9.25;;;5.38;;
80700;SDS011;71609;42.630;23.380;2024-03-02T05:10:37;9.55;;;5.40;;
80700;SDS011;71609;42.630;23.380;2024-03-02T05:13:03;9.77;;;5.40;;
80700;SDS011;71609;42.630;23.380;2024-03-02T05:15:29;9.70;;;5.25;;
80700;SDS011;71609;42.630;23.380;2024-03-02T05:17:55;9.68;;;4.72;;
80700;SDS011;71609;42.630;23.380;2024-03-02T05:20:22;10.98;;;5.70;;
80700;SDS011;71609;42.630;23.380;2024-03-02T05:22:47;10.40;;;5.38;;
80700;SDS011;71609;42.630;23.380;2024-03-02T05:25:14;9.13;;;5.68;;
80700;SDS011;71609;42.630;23.380;2024-03-02T05:27:40;8.60;;;5.18;;
80700;SDS011;71609;42.630;23.380;2024-03-02T05:30:06;9.38;;;5.13;;
80700;SDS011;71609;42.630;23.380;2024-03-02T05:32:33;8.30;;;5.18;;
80700;SDS011;71609;42.630;23.380;2024-03-02T05:34:59;9.27;;;5.57;;
80700;SDS011;71609;42.630;23.380;2024-03-02T05:37:24;11.07;;;5.95;;
80700;SDS011;71609;42.630;23.380;2024-03-02T05:39:50;8.57;;;4.97;;
80700;SDS011;71609;42.630;23.380;2024-03-02T05:42:16;9.70;;;5.07;;
80700;SDS011;71609;42.630;23.380;2024-03-02T05:44:42;8.80;;;5.18;;
80700;SDS011;71609;42.630;23.380;2024-03-02T05:47:08;11.93;;;5.70;;
80700;SDS011;71609;42.630;23.380;2024-03-02T05:49:34;9.95;;;5.70;;
80700;SDS011;71609;42.630;23.380;2024-03-02T05:52:00;11.00;;;5.80;;
80700;SDS011;71609;42.630;23.380;2024-03-02T05:54:26;9.98;;;5.20;;
80700;SDS011;71609;42.630;23.380;2024-03-02T05:56:52;9.00;;;5.22;;
80700;SDS011;71609;42.630;23.380;2024-03-02T05:59:17;11.48;;;5.55;;
80700;SDS011;71609;42.630;23.380;2024-03-02T06:01:43;9.48;;;5.70;;
80700;SDS011;71609;42.630;23.380;2024-03-02T06:04:13;10.45;;;5.68;;
80700;SDS011;71609;42.630;23.380;2024-03-02T06:06:42;10.52;;;5.95;;
80700;SDS011;71609;42.630;23.380;2024-03-02T06:09:08;9.25;;;5.22;;
80700;SDS011;71609;42.630;23.380;2024-03-02T06:11:40;10.20;;;5.40;;
80700;SDS011;71609;42.630;23.380;2024-03-02T06:14:07;9.65;;;5.38;;
80700;SDS011;71609;42.630;23.380;2024-03-02T06:16:33;10.52;;;5.93;;
80700;SDS011;71609;42.630;23.380;2024-03-02T06:18:59;8.85;;;5.00;;
80700;SDS011;71609;42.630;23.380;2024-03-02T06:21:29;10.88;;;5.78;;
80700;SDS011;71609;42.630;23.380;2024-03-02T06:23:55;9.57;;;5.50;;
80700;SDS011;71609;42.630;23.380;2024-03-02T06:26:21;8.63;;;5.55;;
80700;SDS011;71609;42.630;23.380;2024-03-02T06:28:47;11.32;;;6.00;;
80700;SDS011;71609;42.630;23.380;2024-03-02T06:31:13;9.45;;;5.60;;
80700;SDS011;71609;42.630;23.380;2024-03-02T06:33:39;10.13;;;5.28;;
80700;SDS011;71609;42.630;23.380;2024-03-02T06:36:05;10.20;;;5.80;;
80700;SDS011;71609;42.630;23.380;2024-03-02T06:38:33;10.68;;;5.32;;
80700;SDS011;71609;42.630;23.380;2024-03-02T06:40:59;9.88;;;5.45;;
80700;SDS011;71609;42.630;23.380;2024-03-02T06:43:25;8.02;;;4.80;;
80700;SDS011;71609;42.630;23.380;2024-03-02T06:45:51;9.88;;;5.90;;
80700;SDS011;71609;42.630;23.380;2024-03-02T06:48:17;9.52;;;5.57;;
80700;SDS011;71609;42.630;23.380;2024-03-02T06:50:49;10.32;;;5.53;;
80700;SDS011;71609;42.630;23.380;2024-03-02T06:53:15;10.45;;;5.38;;
80700;SDS011;71609;42.630;23.380;2024-03-02T06:58:13;9.10;;;5.40;;
80700;SDS011;71609;42.630;23.380;2024-03-02T07:00:42;10.27;;;6.03;;
80700;SDS011;71609;42.630;23.380;2024-03-02T07:03:09;9.77;;;5.53;;
80700;SDS011;71609;42.630;23.380;2024-03-02T07:05:35;10.13;;;5.50;;
80700;SDS011;71609;42.630;23.380;2024-03-02T07:08:01;10.23;;;5.53;;
80700;SDS011;71609;42.630;23.380;2024-03-02T07:10:28;9.77;;;5.22;;
80700;SDS011;71609;42.630;23.380;2024-03-02T07:12:54;9.63;;;5.50;;
80700;SDS011;71609;42.630;23.380;2024-03-02T07:15:19;10.15;;;5.70;;
80700;SDS011;71609;42.630;23.380;2024-03-02T07:18:00;9.48;;;5.55;;
80700;SDS011;71609;42.630;23.380;2024-03-02T07:20:26;11.20;;;5.90;;
80700;SDS011;71609;42.630;23.380;2024-03-02T07:22:52;9.25;;;5.35;;
80700;SDS011;71609;42.630;23.380;2024-03-02T07:25:17;9.57;;;5.90;;
80700;SDS011;71609;42.630;23.380;2024-03-02T07:27:43;9.18;;;5.15;;
80700;SDS011;71609;42.630;23.380;2024-03-02T07:30:09;9.73;;;5.72;;
80700;SDS011;71609;42.630;23.380;2024-03-02T07:32:38;10.43;;;5.78;;
80700;SDS011;71609;42.630;23.380;2024-03-02T07:35:06;9.75;;;5.10;;
80700;SDS011;71609;42.630;23.380;2024-03-02T07:37:32;10.95;;;5.68;;
80700;SDS011;71609;42.630;23.380;2024-03-02T07:39:58;9.40;;;5.70;;
80700;SDS011;71609;42.630;23.380;2024-03-02T07:42:24;11.65;;;6.05;;
80700;SDS011;71609;42.630;23.380;2024-03-02T07:44:50;10.20;;;5.72;;
80700;SDS011;71609;42.630;23.380;2024-03-02T07:47:15;9.30;;;5.78;;
80700;SDS011;71609;42.630;23.380;2024-03-02T07:49:41;10.57;;;5.55;;
80700;SDS011;71609;42.630;23.380;2024-03-02T07:52:07;9.70;;;5.60;;
80700;SDS011;71609;42.630;23.380;2024-03-02T07:54:33;9.32;;;5.05;;
80700;SDS011;71609;42.630;23.380;2024-03-02T07:56:58;9.50;;;5.15;;
80700;SDS011;71609;42.630;23.380;2024-03-02T07:59:25;8.93;;;5.05;;
80700;SDS011;71609;42.630;23.380;2024-03-02T08:01:50;11.13;;;5.57;;
80700;SDS011;71609;42.630;23.380;2024-03-02T08:04:16;9.23;;;5.45;;
80700;SDS011;71609;42.630;23.380;2024-03-02T08:06:42;11.05;;;5.82;;
80700;SDS011;71609;42.630;23.380;2024-03-02T08:09:08;9.02;;;5.40;;
80700;SDS011;71609;42.630;23.380;2024-03-02T08:11:36;8.60;;;5.20;;
80700;SDS011;71609;42.630;23.380;2024-03-02T08:14:02;9.32;;;5.53;;
80700;SDS011;71609;42.630;23.380;2024-03-02T08:16:28;10.32;;;5.28;;
80700;SDS011;71609;42.630;23.380;2024-03-02T08:18:54;9.10;;;4.88;;
80700;SDS011;71609;42.630;23.380;2024-03-02T08:21:22;10.05;;;5.38;;
80700;SDS011;71609;42.630;23.380;2024-03-02T08:23:49;11.73;;;5.13;;
80700;SDS011;71609;42.630;23.380;2024-03-02T08:26:15;11.93;;;5.70;;
80700;SDS011;71609;42.630;23.380;2024-03-02T08:28:41;9.05;;;5.32;;
80700;SDS011;71609;42.630;23.380;2024-03-02T08:31:07;9.07;;;5.20;;
80700;SDS011;71609;42.630;23.380;2024-03-02T08:33:33;9.15;;;4.90;;
80700;SDS011;71609;42.630;23.380;2024-03-02T08:36:00;9.45;;;5.88;;
80700;SDS011;71609;42.630;23.380;2024-03-02T08:38:26;9.88;;;5.20;;
80700;SDS011;71609;42.630;23.380;2024-03-02T08:40:52;9.55;;;5.28;;
80700;SDS011;71609;42.630;23.380;2024-03-02T08:43:18;10.77;;;5.82;;
80700;SDS011;71609;42.630;23.380;2024-03-02T08:45:44;9.60;;;5.50;;
80700;SDS011;71609;42.630;23.380;2024-03-02T08:48:10;10.07;;;5.57;;
80700;SDS011;71609;42.630;23.380;2024-03-02T08:50:36;10.43;;;5.25;;
80700;SDS011;71609;42.630;23.380;2024-03-02T08:53:05;10.10;;;5.63;;
80700;SDS011;71609;42.630;23.380;2024-03-02T08:55:30;9.15;;;5.00;;
80700;SDS011;71609;42.630;23.380;2024-03-02T08:57:56;10.05;;;5.72;;
80700;SDS011;71609;42.630;23.380;2024-03-02T09:00:22;10.38;;;5.80;;
80700;SDS011;71609;42.630;23.380;2024-03-02T09:02:49;12.50;;;5.40;;
80700;SDS011;71609;42.630;23.380;2024-03-02T09:05:15;9.85;;;5.60;;
80700;SDS011;71609;42.630;23.380;2024-03-02T09:07:41;11.02;;;5.90;;
80700;SDS011;71609;42.630;23.380;2024-03-02T09:10:07;8.07;;;4.82;;
80700;SDS011;71609;42.630;23.380;2024-03-02T09:12:33;9.60;;;5.65;;
80700;SDS011;71609;42.630;23.380;2024-03-02T09:15:00;9.40;;;5.35;;
80700;SDS011;71609;42.630;23.380;2024-03-02T09:17:26;9.23;;;5.10;;
80700;SDS011;71609;42.630;23.380;2024-03-02T09:19:52;9.95;;;5.10;;
80700;SDS011;71609;42.630;23.380;2024-03-02T09:22:18;10.18;;;5.47;;
80700;SDS011;71609;42.630;23.380;2024-03-02T09:24:44;9.57;;;5.55;;
80700;SDS011;71609;42.630;23.380;2024-03-02T09:27:10;9.90;;;4.95;;
80700;SDS011;71609;42.630;23.380;2024-03-02T09:29:36;9.68;;;5.13;;
80700;SDS011;71609;42.630;23.380;2024-03-02T09:32:02;10.10;;;5.25;;
80700;SDS011;71609;42.630;23.380;2024-03-02T09:34:29;9.15;;;5.15;;
80700;SDS011;71609;42.630;23.380;2024-03-02T09:36:54;9.23;;;5.07;;
80700;SDS011;71609;42.630;23.380;2024-03-02T09:39:20;8.98;;;5.38;;
80700;SDS011;71609;42.630;23.380;2024-03-02T09:41:47;10.35;;;5.55;;
80700;SDS011;71609;42.630;23.380;2024-03-02T09:44:13;9.32;;;5.15;;
80700;SDS011;71609;42.630;23.380;2024-03-02T09:46:39;9.13;;;5.55;;
80700;SDS011;71609;42.630;23.380;2024-03-02T09:49:05;10.20;;;4.95;;
80700;SDS011;71609;42.630;23.380;2024-03-02T09:51:31;7.95;;;4.60;;
80700;SDS011;71609;42.630;23.380;2024-03-02T09:53:57;10.07;;;5.50;;
80700;SDS011;71609;42.630;23.380;2024-03-02T09:56:25;10.23;;;5.47;;
80700;SDS011;71609;42.630;23.380;2024-03-02T09:58:51;9.25;;;5.53;;
80700;SDS011;71609;42.630;23.380;2024-03-02T10:01:17;9.40;;;5.45;;
80700;SDS011;71609;42.630;23.380;2024-03-02T10:03:44;8.77;;;4.95;;
80700;SDS011;71609;42.630;23.380;2024-03-02T10:06:20;10.88;;;4.93;;
80700;SDS011;71609;42.630;23.380;2024-03-02T10:08:50;8.77;;;5.03;;
80700;SDS011;71609;42.630;23.380;2024-03-02T10:14:07;10.20;;;5.25;;
80700;SDS011;71609;42.630;23.380;2024-03-02T10:16:41;9.70;;;4.80;;
80700;SDS011;71609;42.630;23.380;2024-03-02T10:19:29;9.55;;;5.40;;
80700;SDS011;71609;42.630;23.380;2024-03-02T10:21:58;9.73;;;5.20;;
80700;SDS011;71609;42.630;23.380;2024-03-02T10:24:24;10.38;;;5.60;;
80700;SDS011;71609;42.630;23.380;2024-03-02T10:26:51;9.68;;;5.07;;
80700;SDS011;71609;42.630;23.380;2024-03-02T10:29:17;8.82;;;5.00;;
80700;SDS011;71609;42.630;23.380;2024-03-02T10:31:43;8.98;;;5.07;;
80700;SDS011;71609;42.630;23.380;2024-03-02T10:34:11;9.45;;;5.20;;
80700;SDS011;71609;42.630;23.380;2024-03-02T10:36:40;9.30;;;5.05;;
80700;SDS011;71609;42.630;23.380;2024-03-02T10:39:07;10.10;;;4.97;;
80700;SDS011;71609;42.630;23.380;2024-03-02T10:41:34;8.05;;;4.78;;
80700;SDS011;71609;42.630;23.380;2024-03-02T10:44:01;9.10;;;4.93;;
80700;SDS011;71609;42.630;23.380;2024-03-02T10:46:30;8.63;;;4.88;;
80700;SDS011;71609;42.630;23.380;2024-03-02T10:48:58;9.00;;;5.07;;
80700;SDS011;71609;42.630;23.380;2024-03-02T10:51:28;9.05;;;4.82;;
80700;SDS011;71609;42.630;23.380;2024-03-02T10:53:57;8.50;;;5.00;;
80700;SDS011;71609;42.630;23.380;2024-03-02T10:56:47;9.85;;;5.43;;
80700;SDS011;71609;42.630;23.380;2024-03-02T11:01:57;9.40;;;5.00;;
80700;SDS011;71609;42.630;23.380;2024-03-02T11:04:24;8.07;;;4.65;;
80700;SDS011;71609;42.630;23.380;2024-03-02T11:06:52;10.50;;;5.10;;
80700;SDS011;71609;42.630;23.380;2024-03-02T11:09:26;8.10;;;4.88;;
80700;SDS011;71609;42.630;23.380;2024-03-02T11:11:56;8.18;;;4.78;;
80700;SDS011;71609;42.630;23.380;2024-03-02T11:14:31;9.13;;;5.18;;
80700;SDS011;71609;42.630;23.380;2024-03-02T11:17:01;8.55;;;4.97;;
80700;SDS011;71609;42.630;23.380;2024-03-02T11:19:29;8.50;;;4.83;;
80700;SDS011;71609;42.630;23.380;2024-03-02T11:21:56;10.18;;;5.53;;
80700;SDS011;71609;42.630;23.380;2024-03-02T11:26:58;8.63;;;4.80;;
80700;SDS011;71609;42.630;23.380;2024-03-02T11:32:06;8.48;;;5.13;;
80700;SDS011;71609;42.630;23.380;2024-03-02T11:34:49;8.15;;;4.82;;
80700;SDS011;71609;42.630;23.380;2024-03-02T11:37:19;10.15;;;5.35;;
80700;SDS011;71609;42.630;23.380;2024-03-02T11:39:46;8.82;;;4.63;;
80700;SDS011;71609;42.630;23.380;2024-03-02T11:42:14;9.13;;;4.63;;
80700;SDS011;71609;42.630;23.380;2024-03-02T11:44:47;9.05;;;5.07;;
80700;SDS011;71609;42.630;23.380;2024-03-02T11:47:16;9.43;;;4.68;;
80700;SDS011;71609;42.630;23.380;2024-03-02T11:52:14;9.13;;;4.78;;
80700;SDS011;71609;42.630;23.380;2024-03-02T11:54:42;8.23;;;4.88;;
80700;SDS011;71609;42.630;23.380;2024-03-02T11:57:17;9.57;;;5.03;;
80700;SDS011;71609;42.630;23.380;2024-03-02T11:59:44;9.32;;;5.15;;
80700;SDS011;71609;42.630;23.380;2024-03-02T12:02:17;8.68;;;5.05;;
80700;SDS011;71609;42.630;23.380;2024-03-02T12:04:44;8.55;;;5.28;;
80700;SDS011;71609;42.630;23.380;2024-03-02T12:07:11;8.70;;;4.82;;
80700;SDS011;71609;42.630;23.380;2024-03-02T12:09:38;8.82;;;4.60;;
80700;SDS011;71609;42.630;23.380;2024-03-02T12:12:07;8.35;;;4.95;;
80700;SDS011;71609;42.630;23.380;2024-03-02T12:14:35;9.90;;;5.35;;
80700;SDS011;71609;42.630;23.380;2024-03-02T12:17:02;8.32;;;4.38;;
80700;SDS011;71609;42.630;23.380;2024-03-02T12:19:29;11.48;;;5.43;;
80700;SDS011;71609;42.630;23.380;2024-03-02T12:21:58;8.30;;;4.13;;
80700;SDS011;71609;42.630;23.380;2024-03-02T12:24:28;9.55;;;5.20;;
80700;SDS011;71609;42.630;23.380;2024-03-02T12:26:55;10.32;;;4.85;;
80700;SDS011;71609;42.630;23.380;2024-03-02T12:29:21;8.75;;;4.97;;
80700;SDS011;71609;42.630;23.380;2024-03-02T12:31:48;8.77;;;4.88;;
80700;SDS011;71609;42.630;23.380;2024-03-02T12:34:14;9.00;;;4.78;;
80700;SDS011;71609;42.630;23.380;2024-03-02T12:36:41;8.57;;;4.70;;
80700;SDS011;71609;42.630;23.380;2024-03-02T12:39:08;9.07;;;4.70;;
80700;SDS011;71609;42.630;23.380;2024-03-02T12:41:38;8.30;;;4.75;;
80700;SDS011;71609;42.630;23.380;2024-03-02T12:44:04;8.15;;;4.40;;
80700;SDS011;71609;42.630;23.380;2024-03-02T12:46:31;7.95;;;4.47;;
80700;SDS011;71609;42.630;23.380;2024-03-02T12:48:58;8.35;;;4.57;;
80700;SDS011;71609;42.630;23.380;2024-03-02T12:51:29;8.57;;;4.78;;
80700;SDS011;71609;42.630;23.380;2024-03-02T12:53:56;10.00;;;5.03;;
80700;SDS011;71609;42.630;23.380;2024-03-02T12:56:23;8.38;;;4.32;;
80700;SDS011;71609;42.630;23.380;2024-03-02T12:58:54;8.40;;;4.53;;
80700;SDS011;71609;42.630;23.380;2024-03-02T13:01:20;9.40;;;5.05;;
80700;SDS011;71609;42.630;23.380;2024-03-02T13:03:48;9.35;;;4.35;;
80700;SDS011;71609;42.630;23.380;2024-03-02T13:06:16;8.38;;;4.30;;
80700;SDS011;71609;42.630;23.380;2024-03-02T13:08:42;9.05;;;4.57;;
80700;SDS011;71609;42.630;23.380;2024-03-02T13:11:09;7.15;;;3.97;;
80700;SDS011;71609;42.630;23.380;2024-03-02T13:13:35;8.60;;;4.90;;
80700;SDS011;71609;42.630;23.380;2024-03-02T13:16:01;8.55;;;4.60;;
80700;SDS011;71609;42.630;23.380;2024-03-02T13:18:28;8.10;;;4.70;;
80700;SDS011;71609;42.630;23.380;2024-03-02T13:20:54;7.20;;;4.05;;
80700;SDS011;71609;42.630;23.380;2024-03-02T13:23:21;7.93;;;4.68;;
80700;SDS011;71609;42.630;23.380;2024-03-02T13:25:47;8.05;;;4.18;;
80700;SDS011;71609;42.630;23.380;2024-03-02T13:28:13;8.23;;;4.38;;
80700;SDS011;71609;42.630;23.380;2024-03-02T13:30:38;8.02;;;4.70;;
80700;SDS011;71609;42.630;23.380;2024-03-02T13:33:04;7.55;;;4.13;;
80700;SDS011;71609;42.630;23.380;2024-03-02T13:35:30;8.98;;;4.88;;
80700;SDS011;71609;42.630;23.380;2024-03-02T13:37:56;8.32;;;4.65;;
80700;SDS011;71609;42.630;23.380;2024-03-02T13:40:21;10.13;;;5.13;;
80700;SDS011;71609;42.630;23.380;2024-03-02T13:42:48;7.75;;;4.32;;
80700;SDS011;71609;42.630;23.380;2024-03-02T13:45:17;8.40;;;4.78;;
80700;SDS011;71609;42.630;23.380;2024-03-02T13:47:43;9.80;;;5.30;;
80700;SDS011;71609;42.630;23.380;2024-03-02T13:50:09;8.48;;;4.65;;
80700;SDS011;71609;42.630;23.380;2024-03-02T13:52:35;8.68;;;4.70;;
80700;SDS011;71609;42.630;23.380;2024-03-02T13:55:01;7.65;;;4.47;;
80700;SDS011;71609;42.630;23.380;2024-03-02T13:57:27;7.55;;;4.15;;
80700;SDS011;71609;42.630;23.380;2024-03-02T13:59:53;7.60;;;4.35;;
80700;SDS011;71609;42.630;23.380;2024-03-02T14:02:19;8.52;;;4.50;;
80700;SDS011;71609;42.630;23.380;2024-03-02T14:04:45;9.60;;;5.20;;
80700;SDS011;71609;42.630;23.380;2024-03-02T14:07:13;7.55;;;4.32;;
80700;SDS011;71609;42.630;23.380;2024-03-02T14:09:39;8.55;;;4.68;;
80700;SDS011;71609;42.630;23.380;2024-03-02T14:12:06;8.45;;;4.78;;
80700;SDS011;71609;42.630;23.380;2024-03-02T14:14:32;8.38;;;4.25;;
80700;SDS011;71609;42.630;23.380;2024-03-02T14:16:59;8.85;;;4.93;;
80700;SDS011;71609;42.630;23.380;2024-03-02T14:19:28;8.43;;;4.55;;
80700;SDS011;71609;42.630;23.380;2024-03-02T14:21:54;8.77;;;4.68;;
80700;SDS011;71609;42.630;23.380;2024-03-02T14:24:21;7.53;;;4.30;;
80700;SDS011;71609;42.630;23.380;2024-03-02T14:26:50;7.72;;;4.45;;
80700;SDS011;71609;42.630;23.380;2024-03-02T14:29:19;9.18;;;4.47;;
80700;SDS011;71609;42.630;23.380;2024-03-02T14:31:44;8.27;;;4.43;;
80700;SDS011;71609;42.630;23.380;2024-03-02T14:34:13;7.20;;;4.18;;
80700;SDS011;71609;42.630;23.380;2024-03-02T14:36:39;7.82;;;4.43;;
80700;SDS011;71609;42.630;23.380;2024-03-02T14:39:07;8.07;;;4.10;;
80700;SDS011;71609;42.630;23.380;2024-03-02T14:41:35;7.88;;;4.13;;
80700;SDS011;71609;42.630;23.380;2024-03-02T14:44:01;9.27;;;4.22;;
80700;SDS011;71609;42.630;23.380;2024-03-02T14:46:27;7.93;;;4.38;;
80700;SDS011;71609;42.630;23.380;2024-03-02T14:48:53;8.32;;;4.30;;
80700;SDS011;71609;42.630;23.380;2024-03-02T14:51:19;7.80;;;4.30;;